Time;durP1;ratioP1;P1;durP2;ratioP2;P2;SDS_P1;SDS_P2;PMS_P1;PMS_P2;Temp;Humidity;BMP_temperature;BMP_pressure;BME280_temperature;BME280_humidity;BME280_pressure;Samples;Min_cycle;Max_cycle;Signal;HPM_P1;HPM_P2
2022/10/30 00:01:13;;;;;;;13.65;7.75;;;;;;;;;;5032379;28;20186;-74
2022/10/30 00:03:38;;;;;;;15.00;8.90;;;;;;;;;;5031146;28;20174;-73
2022/10/30 00:06:05;;;;;;;12.18;8.13;;;;;;;;;;5022945;28;20167;-73
2022/10/30 00:08:30;;;;;;;15.43;8.77;;;;;;;;;;5022347;28;20210;-73
2022/10/30 00:10:55;;;;;;;16.42;9.98;;;;;;;;;;5018883;28;20171;-74
2022/10/30 00:13:21;;;;;;;14.57;8.88;;;;;;;;;;5022614;28;20175;-74
2022/10/30 00:15:50;;;;;;;14.90;8.90;;;;;;;;;;5025245;28;20186;-73
2022/10/30 00:18:15;;;;;;;17.13;9.43;;;;;;;;;;5033997;28;20261;-73
2022/10/30 00:20:40;;;;;;;17.58;9.20;;;;;;;;;;5031302;28;20297;-73
2022/10/30 00:23:05;;;;;;;16.13;10.07;;;;;;;;;;5032279;28;20260;-73
2022/10/30 00:25:30;;;;;;;14.10;7.93;;;;;;;;;;5027596;28;20667;-75
2022/10/30 00:27:55;;;;;;;14.80;8.80;;;;;;;;;;5025170;28;20182;-74
2022/10/30 00:30:21;;;;;;;13.25;9.70;;;;;;;;;;5028569;28;20264;-73
2022/10/30 00:32:46;;;;;;;11.85;9.13;;;;;;;;;;5032257;28;20674;-75
2022/10/30 00:35:11;;;;;;;16.00;9.55;;;;;;;;;;5023900;28;20186;-74
2022/10/30 00:37:37;;;;;;;21.63;11.93;;;;;;;;;;5032395;28;20183;-72
2022/10/30 00:40:02;;;;;;;17.13;9.23;;;;;;;;;;5028431;28;20225;-75
2022/10/30 00:42:29;;;;;;;13.95;9.80;;;;;;;;;;5029845;28;20174;-72
2022/10/30 00:44:54;;;;;;;23.17;10.60;;;;;;;;;;5027356;28;20250;-74
2022/10/30 00:47:51;;;;;;;16.00;9.55;;;;;;;;;;5031498;28;20666;-74
2022/10/30 00:50:25;;;;;;;13.43;8.52;;;;;;;;;;4992256;28;20281;-74
2022/10/30 00:52:51;;;;;;;17.55;9.73;;;;;;;;;;5039069;28;20268;-74
2022/10/30 00:55:20;;;;;;;16.02;8.45;;;;;;;;;;5027329;28;20274;-72
2022/10/30 00:57:46;;;;;;;21.48;9.82;;;;;;;;;;5024817;28;20182;-74
2022/10/30 01:00:12;;;;;;;18.67;9.68;;;;;;;;;;5025958;28;20210;-74
2022/10/30 01:02:38;;;;;;;17.15;9.95;;;;;;;;;;5026833;28;20270;-74
2022/10/30 01:05:03;;;;;;;18.52;8.65;;;;;;;;;;5022978;28;20225;-72
2022/10/30 01:07:28;;;;;;;14.63;9.25;;;;;;;;;;5025373;28;20558;-74
2022/10/30 01:09:53;;;;;;;14.48;9.30;;;;;;;;;;5027994;28;20292;-73
2022/10/30 01:12:19;;;;;;;15.75;8.98;;;;;;;;;;5027993;28;20233;-74
2022/10/30 01:14:46;;;;;;;18.45;9.57;;;;;;;;;;5032114;28;20177;-73
2022/10/30 01:17:14;;;;;;;16.33;9.68;;;;;;;;;;5031194;28;20179;-73
2022/10/30 01:20:00;;;;;;;18.00;10.18;;;;;;;;;;5029743;28;20205;-74
2022/10/30 01:22:37;;;;;;;19.50;9.52;;;;;;;;;;5031150;28;20240;-73
2022/10/30 01:25:11;;;;;;;15.63;10.10;;;;;;;;;;5027726;28;20609;-73
2022/10/30 01:27:55;;;;;;;15.43;9.60;;;;;;;;;;5023594;28;20182;-73
2022/10/30 01:30:35;;;;;;;16.15;9.40;;;;;;;;;;5032622;28;20245;-73
2022/10/30 01:33:03;;;;;;;16.23;9.23;;;;;;;;;;5019218;28;20186;-73
2022/10/30 01:35:36;;;;;;;16.10;9.52;;;;;;;;;;5021594;28;20201;-73
2022/10/30 01:38:07;;;;;;;18.17;9.05;;;;;;;;;;5026926;28;20699;-73
2022/10/30 01:40:32;;;;;;;16.05;8.60;;;;;;;;;;5030815;28;20213;-73
2022/10/30 01:42:58;;;;;;;17.95;9.88;;;;;;;;;;5027996;28;20170;-73
2022/10/30 01:45:32;;;;;;;15.77;9.35;;;;;;;;;;5030408;28;20185;-73
2022/10/30 01:48:08;;;;;;;16.30;10.23;;;;;;;;;;5030588;28;20173;-73
2022/10/30 01:50:42;;;;;;;16.17;10.00;;;;;;;;;;5042240;28;20189;-73
2022/10/30 01:53:07;;;;;;;16.17;9.32;;;;;;;;;;5021068;28;20221;-73
2022/10/30 01:55:32;;;;;;;14.67;8.93;;;;;;;;;;5026570;28;20182;-73
2022/10/30 01:58:16;;;;;;;17.77;9.75;;;;;;;;;;5024605;28;20714;-73
2022/10/30 02:00:42;;;;;;;16.73;10.38;;;;;;;;;;5025205;28;20213;-73
2022/10/30 02:03:08;;;;;;;14.90;9.38;;;;;;;;;;5029208;28;20186;-73
2022/10/30 02:05:44;;;;;;;13.68;10.05;;;;;;;;;;5029206;28;20178;-73
2022/10/30 02:08:09;;;;;;;15.02;8.52;;;;;;;;;;5023723;28;20179;-73
2022/10/30 02:10:35;;;;;;;13.57;8.88;;;;;;;;;;5030217;28;20200;-73
2022/10/30 02:13:01;;;;;;;14.48;10.60;;;;;;;;;;5023738;28;20242;-73
2022/10/30 02:15:26;;;;;;;22.73;10.40;;;;;;;;;;5027343;28;20240;-75
2022/10/30 02:17:52;;;;;;;15.65;8.68;;;;;;;;;;5031695;28;20182;-73
2022/10/30 02:20:21;;;;;;;14.25;9.05;;;;;;;;;;5024540;28;20206;-73
2022/10/30 02:22:46;;;;;;;15.63;9.65;;;;;;;;;;5029075;28;20191;-73
2022/10/30 02:25:11;;;;;;;17.17;10.30;;;;;;;;;;5031822;28;20181;-73
2022/10/30 02:27:37;;;;;;;12.45;10.18;;;;;;;;;;5035182;28;20175;-73
2022/10/30 02:30:02;;;;;;;17.17;9.70;;;;;;;;;;5020511;28;20233;-73
2022/10/30 02:32:27;;;;;;;14.95;9.20;;;;;;;;;;5020267;28;20213;-73
2022/10/30 02:34:53;;;;;;;12.82;8.55;;;;;;;;;;5033147;28;20171;-73
2022/10/30 02:37:18;;;;;;;15.00;9.52;;;;;;;;;;5023113;28;20356;-73
2022/10/30 02:39:43;;;;;;;16.65;9.82;;;;;;;;;;5027826;28;20203;-73
2022/10/30 02:42:08;;;;;;;16.98;9.90;;;;;;;;;;5019188;28;20170;-73
2022/10/30 02:44:33;;;;;;;20.05;10.05;;;;;;;;;;5028640;28;20204;-73
2022/10/30 02:46:59;;;;;;;15.45;9.88;;;;;;;;;;5021030;28;20584;-73
2022/10/30 02:49:25;;;;;;;12.48;8.90;;;;;;;;;;5028316;28;20229;-73
2022/10/30 02:51:50;;;;;;;14.95;8.80;;;;;;;;;;5020856;28;20182;-73
2022/10/30 02:54:15;;;;;;;14.23;9.32;;;;;;;;;;5028504;28;20200;-73
2022/10/30 02:56:40;;;;;;;14.38;9.45;;;;;;;;;;5022656;28;20229;-73
2022/10/30 02:59:05;;;;;;;19.50;9.93;;;;;;;;;;5029555;28;20201;-73
2022/10/30 03:01:31;;;;;;;20.10;10.50;;;;;;;;;;5029194;28;20178;-73
2022/10/30 03:03:56;;;;;;;18.55;10.15;;;;;;;;;;5023811;28;20183;-73
2022/10/30 03:06:21;;;;;;;18.63;9.65;;;;;;;;;;5019518;28;20197;-73
2022/10/30 03:08:47;;;;;;;14.80;10.00;;;;;;;;;;5025484;28;20217;-73
2022/10/30 03:11:14;;;;;;;20.38;10.80;;;;;;;;;;5021877;28;20274;-73
2022/10/30 03:13:39;;;;;;;18.45;11.40;;;;;;;;;;5023222;28;20644;-73
2022/10/30 03:16:12;;;;;;;13.70;9.35;;;;;;;;;;5023029;28;20182;-73
2022/10/30 03:18:37;;;;;;;17.90;10.52;;;;;;;;;;5024220;28;20245;-73
2022/10/30 03:21:04;;;;;;;20.40;10.93;;;;;;;;;;5028590;28;20198;-74
2022/10/30 03:23:29;;;;;;;18.40;11.48;;;;;;;;;;5026365;28;20179;-75
2022/10/30 03:25:55;;;;;;;17.75;10.68;;;;;;;;;;5026125;28;20181;-72
2022/10/30 03:28:21;;;;;;;15.93;10.23;;;;;;;;;;5019812;28;20312;-74
2022/10/30 03:30:47;;;;;;;18.15;10.43;;;;;;;;;;5018981;28;20273;-72
2022/10/30 03:33:12;;;;;;;16.70;9.25;;;;;;;;;;5026162;28;20197;-74
2022/10/30 03:35:37;;;;;;;13.13;9.40;;;;;;;;;;5028594;28;20182;-74
2022/10/30 03:38:03;;;;;;;13.27;9.35;;;;;;;;;;5021752;28;20175;-72
2022/10/30 03:40:28;;;;;;;21.92;10.45;;;;;;;;;;5017417;28;20217;-75
2022/10/30 03:42:53;;;;;;;16.90;10.20;;;;;;;;;;5022688;28;20189;-72
2022/10/30 03:45:18;;;;;;;14.57;9.63;;;;;;;;;;5024428;28;20584;-74
2022/10/30 03:47:43;;;;;;;16.38;9.98;;;;;;;;;;5020059;28;20269;-73
2022/10/30 03:50:09;;;;;;;16.33;10.35;;;;;;;;;;5023873;28;20194;-73
2022/10/30 03:52:34;;;;;;;18.70;11.07;;;;;;;;;;5024363;28;20182;-72
2022/10/30 03:54:59;;;;;;;21.55;11.63;;;;;;;;;;5027462;28;20194;-73
2022/10/30 03:57:24;;;;;;;18.60;10.75;;;;;;;;;;5025534;28;20258;-72
2022/10/30 03:59:49;;;;;;;18.08;11.40;;;;;;;;;;5025278;28;20233;-74
2022/10/30 04:02:15;;;;;;;15.70;9.98;;;;;;;;;;5024184;28;20281;-74
2022/10/30 04:04:40;;;;;;;18.80;11.05;;;;;;;;;;5024954;28;20262;-73
2022/10/30 04:07:05;;;;;;;22.13;10.55;;;;;;;;;;5026644;28;20175;-74
2022/10/30 04:09:30;;;;;;;17.08;10.73;;;;;;;;;;5024094;28;20203;-72
2022/10/30 04:11:55;;;;;;;20.73;12.35;;;;;;;;;;5020447;28;20616;-74
2022/10/30 04:14:20;;;;;;;20.48;11.48;;;;;;;;;;5022914;28;20190;-74
2022/10/30 04:16:46;;;;;;;16.70;11.30;;;;;;;;;;5026850;28;20175;-74
2022/10/30 04:19:11;;;;;;;18.83;10.93;;;;;;;;;;5026615;28;20202;-74
2022/10/30 04:21:37;;;;;;;18.75;10.50;;;;;;;;;;5027988;28;20648;-72
2022/10/30 04:24:02;;;;;;;17.67;10.82;;;;;;;;;;5017765;28;20170;-74
2022/10/30 04:26:27;;;;;;;17.67;10.65;;;;;;;;;;5025678;28;20201;-74
2022/10/30 04:28:52;;;;;;;19.60;10.40;;;;;;;;;;5015391;28;20203;-74
2022/10/30 04:31:18;;;;;;;18.88;11.18;;;;;;;;;;5022044;28;20254;-74
2022/10/30 04:33:43;;;;;;;15.77;10.40;;;;;;;;;;5030468;28;20183;-72
2022/10/30 04:36:08;;;;;;;22.77;10.75;;;;;;;;;;5023525;28;20347;-74
2022/10/30 04:38:33;;;;;;;16.52;10.30;;;;;;;;;;5021676;28;20275;-74
2022/10/30 04:40:58;;;;;;;18.80;10.77;;;;;;;;;;5020608;28;20195;-74
2022/10/30 04:43:24;;;;;;;16.65;10.32;;;;;;;;;;5021278;28;20178;-74
2022/10/30 04:45:49;;;;;;;17.52;11.43;;;;;;;;;;5018727;28;20183;-74
2022/10/30 04:48:15;;;;;;;19.02;11.25;;;;;;;;;;5026113;28;20596;-74
2022/10/30 04:50:42;;;;;;;19.95;11.35;;;;;;;;;;5025779;28;20171;-74
2022/10/30 04:53:10;;;;;;;18.10;10.85;;;;;;;;;;5024567;28;20179;-74
2022/10/30 04:55:36;;;;;;;20.80;10.80;;;;;;;;;;5026001;28;20562;-74
2022/10/30 04:58:01;;;;;;;16.80;11.05;;;;;;;;;;5022411;28;20174;-74
2022/10/30 05:00:27;;;;;;;20.48;11.43;;;;;;;;;;5028840;28;20233;-75
2022/10/30 05:02:52;;;;;;;20.45;12.52;;;;;;;;;;5026117;28;20178;-74
2022/10/30 05:05:18;;;;;;;24.73;12.60;;;;;;;;;;5027381;28;20177;-74
2022/10/30 05:07:43;;;;;;;20.02;11.63;;;;;;;;;;5021049;28;20526;-75
2022/10/30 05:10:13;;;;;;;19.52;12.27;;;;;;;;;;5030772;28;20198;-72
2022/10/30 05:12:39;;;;;;;23.42;11.93;;;;;;;;;;5031663;28;20175;-74
2022/10/30 05:15:05;;;;;;;21.48;12.27;;;;;;;;;;5031109;28;20269;-73
2022/10/30 05:17:30;;;;;;;24.98;12.57;;;;;;;;;;5048633;28;20649;-74
2022/10/30 05:19:55;;;;;;;19.35;12.70;;;;;;;;;;5029302;28;20206;-74
2022/10/30 05:22:20;;;;;;;19.38;11.18;;;;;;;;;;5034943;28;20217;-72
2022/10/30 05:24:46;;;;;;;21.23;12.07;;;;;;;;;;5028447;28;20266;-74
2022/10/30 05:27:11;;;;;;;21.77;11.45;;;;;;;;;;5019438;28;20171;-74
2022/10/30 05:29:36;;;;;;;23.88;12.07;;;;;;;;;;5024650;28;20213;-73
2022/10/30 05:32:01;;;;;;;23.00;12.75;;;;;;;;;;5029852;28;20165;-74
2022/10/30 05:34:26;;;;;;;28.52;13.98;;;;;;;;;;5037473;28;20564;-74
2022/10/30 05:36:51;;;;;;;16.75;11.75;;;;;;;;;;5020268;28;20674;-73
2022/10/30 05:39:17;;;;;;;25.77;14.48;;;;;;;;;;5022361;28;20203;-73
2022/10/30 05:41:42;;;;;;;20.38;12.77;;;;;;;;;;5024307;28;20182;-73
2022/10/30 05:44:07;;;;;;;26.55;14.38;;;;;;;;;;5022339;28;20734;-75
2022/10/30 05:46:32;;;;;;;23.77;14.05;;;;;;;;;;5023513;28;20185;-73
2022/10/30 05:48:59;;;;;;;22.40;14.27;;;;;;;;;;5030273;28;20190;-73
2022/10/30 05:51:24;;;;;;;23.05;12.88;;;;;;;;;;5018536;28;20263;-73
2022/10/30 05:53:49;;;;;;;25.95;13.20;;;;;;;;;;5019845;28;20273;-72
2022/10/30 05:56:14;;;;;;;24.52;13.90;;;;;;;;;;5027809;28;20270;-73
2022/10/30 05:58:40;;;;;;;21.77;13.52;;;;;;;;;;5019416;28;20577;-73
2022/10/30 06:01:06;;;;;;;24.85;13.75;;;;;;;;;;5020357;28;20203;-73
2022/10/30 06:03:31;;;;;;;21.17;12.75;;;;;;;;;;5025798;28;20192;-73
2022/10/30 06:05:56;;;;;;;16.35;12.07;;;;;;;;;;5030699;28;20480;-73
2022/10/30 06:08:21;;;;;;;21.02;11.98;;;;;;;;;;5032293;28;20174;-75
2022/10/30 06:10:46;;;;;;;25.25;13.18;;;;;;;;;;5028644;28;20206;-74
2022/10/30 06:13:12;;;;;;;19.67;12.67;;;;;;;;;;5022129;28;20184;-74
2022/10/30 06:15:37;;;;;;;23.13;13.18;;;;;;;;;;5027734;28;20252;-73
2022/10/30 06:18:02;;;;;;;29.15;14.00;;;;;;;;;;5024230;28;20224;-73
2022/10/30 06:20:28;;;;;;;20.60;12.52;;;;;;;;;;5027734;28;20221;-72
2022/10/30 06:23:00;;;;;;;20.13;13.40;;;;;;;;;;5025905;28;20309;-74
2022/10/30 06:25:25;;;;;;;30.07;12.67;;;;;;;;;;5022122;28;20448;-74
2022/10/30 06:27:51;;;;;;;25.10;13.55;;;;;;;;;;5021930;28;20655;-75
2022/10/30 06:30:17;;;;;;;20.00;11.77;;;;;;;;;;5023588;28;20349;-74
2022/10/30 06:32:42;;;;;;;27.40;12.35;;;;;;;;;;5020722;28;20175;-74
2022/10/30 06:35:07;;;;;;;24.63;13.32;;;;;;;;;;5023296;28;20187;-74
2022/10/30 06:37:32;;;;;;;26.63;13.55;;;;;;;;;;5025761;28;20197;-75
2022/10/30 06:39:58;;;;;;;27.35;13.70;;;;;;;;;;5023437;28;20253;-74
2022/10/30 06:42:23;;;;;;;18.60;12.90;;;;;;;;;;5019883;28;20644;-74
2022/10/30 06:44:48;;;;;;;31.85;13.90;;;;;;;;;;5020171;28;20254;-72
2022/10/30 06:47:14;;;;;;;26.38;14.20;;;;;;;;;;5030193;28;20170;-75
2022/10/30 06:49:39;;;;;;;23.33;13.10;;;;;;;;;;5020686;28;20202;-73
2022/10/30 06:52:04;;;;;;;19.88;12.98;;;;;;;;;;5026082;28;20281;-74
2022/10/30 06:54:29;;;;;;;19.08;12.40;;;;;;;;;;5030345;28;20575;-74
2022/10/30 06:56:55;;;;;;;24.05;13.88;;;;;;;;;;5037484;28;20175;-74
2022/10/30 06:59:20;;;;;;;30.83;14.27;;;;;;;;;;5013727;28;20211;-74
2022/10/30 07:01:45;;;;;;;25.60;12.93;;;;;;;;;;5027646;28;20221;-74
2022/10/30 07:04:10;;;;;;;20.60;13.23;;;;;;;;;;5021343;28;20193;-74
2022/10/30 07:06:35;;;;;;;21.15;13.68;;;;;;;;;;5027710;28;20194;-74
2022/10/30 07:09:01;;;;;;;22.98;14.23;;;;;;;;;;5030049;28;20236;-74
2022/10/30 07:11:26;;;;;;;23.65;13.57;;;;;;;;;;5019470;28;20186;-74
2022/10/30 07:13:51;;;;;;;24.50;12.48;;;;;;;;;;5024680;28;20167;-74
2022/10/30 07:16:16;;;;;;;22.35;12.57;;;;;;;;;;5038605;28;20256;-74
2022/10/30 07:18:41;;;;;;;19.63;12.98;;;;;;;;;;5019214;28;20194;-74
2022/10/30 07:21:07;;;;;;;20.88;13.35;;;;;;;;;;5021555;28;20207;-74
2022/10/30 07:23:32;;;;;;;30.10;15.75;;;;;;;;;;5026082;28;20174;-73
2022/10/30 07:25:58;;;;;;;26.73;16.48;;;;;;;;;;5029438;28;20602;-72
2022/10/30 07:28:23;;;;;;;24.60;14.10;;;;;;;;;;5030918;28;20171;-74
2022/10/30 07:30:48;;;;;;;25.08;14.95;;;;;;;;;;5015066;28;20249;-75
2022/10/30 07:33:13;;;;;;;30.25;16.23;;;;;;;;;;5020410;28;20179;-74
2022/10/30 07:35:38;;;;;;;28.80;16.77;;;;;;;;;;5017924;28;20596;-74
2022/10/30 07:38:05;;;;;;;29.20;16.10;;;;;;;;;;5022092;28;20170;-74
2022/10/30 07:40:30;;;;;;;31.35;16.52;;;;;;;;;;5018804;28;20294;-74
2022/10/30 07:42:56;;;;;;;22.23;15.75;;;;;;;;;;5029449;28;20257;-74
2022/10/30 07:45:21;;;;;;;27.88;17.60;;;;;;;;;;5025910;28;20693;-74
2022/10/30 07:47:46;;;;;;;24.23;15.82;;;;;;;;;;5023329;28;20651;-74
2022/10/30 07:50:11;;;;;;;23.90;15.35;;;;;;;;;;5027892;28;20233;-74
2022/10/30 07:52:37;;;;;;;28.67;15.80;;;;;;;;;;5024579;28;20229;-74
2022/10/30 07:55:02;;;;;;;24.33;15.82;;;;;;;;;;5023009;28;20182;-73
2022/10/30 07:57:30;;;;;;;18.70;14.20;;;;;;;;;;5024669;28;20183;-74
2022/10/30 07:59:55;;;;;;;17.67;12.10;;;;;;;;;;5027222;28;20220;-73
2022/10/30 08:02:20;;;;;;;17.73;11.45;;;;;;;;;;5020962;28;20179;-74
2022/10/30 08:04:45;;;;;;;15.80;11.30;;;;;;;;;;5021689;28;20656;-73
2022/10/30 08:07:10;;;;;;;19.58;10.07;;;;;;;;;;5019984;28;20270;-73
2022/10/30 08:09:36;;;;;;;15.18;9.60;;;;;;;;;;5015592;28;20550;-73
2022/10/30 08:12:01;;;;;;;16.50;9.20;;;;;;;;;;5026482;28;20565;-72
2022/10/30 08:14:26;;;;;;;13.75;9.32;;;;;;;;;;5029764;28;20182;-73
2022/10/30 08:16:51;;;;;;;15.73;9.05;;;;;;;;;;5028578;28;20204;-73
2022/10/30 08:19:16;;;;;;;12.98;9.27;;;;;;;;;;5028497;28;20206;-72
2022/10/30 08:21:42;;;;;;;12.53;7.73;;;;;;;;;;5027325;28;20215;-72
2022/10/30 08:24:07;;;;;;;15.23;8.48;;;;;;;;;;5019447;28;20429;-72
2022/10/30 08:26:32;;;;;;;11.27;7.43;;;;;;;;;;5046604;28;20622;-72
2022/10/30 08:28:57;;;;;;;12.25;9.35;;;;;;;;;;5045991;28;20233;-72
2022/10/30 08:31:23;;;;;;;13.35;8.27;;;;;;;;;;5031299;28;20182;-72
2022/10/30 08:33:48;;;;;;;22.23;9.55;;;;;;;;;;5029642;28;20240;-73
2022/10/30 08:36:13;;;;;;;19.98;10.63;;;;;;;;;;5027186;28;20186;-73
2022/10/30 08:38:38;;;;;;;14.48;8.52;;;;;;;;;;5026666;28;20207;-73
2022/10/30 08:41:03;;;;;;;20.05;9.50;;;;;;;;;;5025667;28;20694;-73
2022/10/30 08:43:29;;;;;;;12.05;8.38;;;;;;;;;;5025990;28;20179;-73
2022/10/30 08:45:56;;;;;;;14.20;9.07;;;;;;;;;;5044331;28;20655;-73
2022/10/30 08:48:21;;;;;;;18.67;9.20;;;;;;;;;;5031188;28;20185;-72
2022/10/30 08:50:46;;;;;;;13.87;8.60;;;;;;;;;;5026361;28;20179;-73
2022/10/30 08:53:13;;;;;;;15.18;8.18;;;;;;;;;;5027534;28;20805;-73
2022/10/30 08:55:38;;;;;;;16.10;8.10;;;;;;;;;;5027811;28;20194;-73
2022/10/30 08:58:03;;;;;;;12.20;9.15;;;;;;;;;;5018827;28;20171;-73
2022/10/30 09:00:29;;;;;;;15.10;8.48;;;;;;;;;;5028477;28;20644;-73
2022/10/30 09:02:54;;;;;;;12.60;8.90;;;;;;;;;;5046122;28;20174;-73
2022/10/30 09:05:20;;;;;;;11.82;8.63;;;;;;;;;;5026943;28;20550;-73
2022/10/30 09:07:45;;;;;;;13.75;7.97;;;;;;;;;;5030023;28;20604;-73
2022/10/30 09:10:11;;;;;;;13.32;9.32;;;;;;;;;;5028392;28;20242;-73
2022/10/30 09:12:36;;;;;;;10.43;7.15;;;;;;;;;;5030924;28;20198;-73
2022/10/30 09:15:01;;;;;;;17.67;8.60;;;;;;;;;;5026465;28;20218;-73
2022/10/30 09:17:26;;;;;;;14.50;7.43;;;;;;;;;;5026153;28;20277;-73
2022/10/30 09:19:52;;;;;;;20.55;9.32;;;;;;;;;;5027803;28;20241;-73
2022/10/30 09:22:17;;;;;;;16.58;8.32;;;;;;;;;;5028393;28;20265;-73
2022/10/30 09:24:42;;;;;;;17.30;8.23;;;;;;;;;;5023916;28;20183;-73
2022/10/30 09:27:07;;;;;;;15.00;7.88;;;;;;;;;;5027826;28;20194;-73
2022/10/30 09:29:34;;;;;;;18.77;8.15;;;;;;;;;;5030794;28;20252;-73
2022/10/30 09:31:59;;;;;;;14.07;7.07;;;;;;;;;;5025506;28;20182;-73
2022/10/30 09:34:25;;;;;;;13.65;8.13;;;;;;;;;;5028276;28;20532;-73
2022/10/30 09:36:51;;;;;;;15.27;8.40;;;;;;;;;;5029105;28;20182;-73
2022/10/30 09:39:16;;;;;;;11.70;7.22;;;;;;;;;;5028570;28;20592;-73
2022/10/30 09:42:00;;;;;;;12.97;8.10;;;;;;;;;;5030846;28;20203;-73
2022/10/30 09:44:28;;;;;;;13.05;7.65;;;;;;;;;;5028232;28;20481;-73
2022/10/30 09:47:12;;;;;;;11.23;7.50;;;;;;;;;;5028735;28;20194;-73
2022/10/30 09:49:37;;;;;;;11.38;7.05;;;;;;;;;;5021618;28;20232;-71
2022/10/30 09:52:18;;;;;;;12.33;7.43;;;;;;;;;;5026861;28;20194;-72
2022/10/30 09:54:43;;;;;;;11.75;7.43;;;;;;;;;;5029637;28;20506;-72
2022/10/30 09:57:14;;;;;;;12.20;7.53;;;;;;;;;;5024886;28;20262;-72
2022/10/30 10:00:05;;;;;;;13.05;7.00;;;;;;;;;;5023358;28;20466;-72
2022/10/30 10:02:31;;;;;;;13.48;7.13;;;;;;;;;;5021578;28;20194;-72
2022/10/30 10:04:58;;;;;;;12.83;7.07;;;;;;;;;;5020896;28;20180;-72
2022/10/30 10:07:23;;;;;;;12.93;8.13;;;;;;;;;;5028737;28;20429;-72
2022/10/30 10:09:50;;;;;;;13.63;7.37;;;;;;;;;;5027060;28;20202;-72
2022/10/30 10:12:28;;;;;;;15.85;7.50;;;;;;;;;;5023910;28;20189;-72
2022/10/30 10:14:53;;;;;;;10.43;6.57;;;;;;;;;;5024981;28;20269;-72
2022/10/30 10:17:24;;;;;;;11.63;6.95;;;;;;;;;;5025587;28;20253;-73
2022/10/30 10:19:49;;;;;;;16.02;7.95;;;;;;;;;;5030316;28;20206;-72
2022/10/30 10:22:20;;;;;;;15.43;8.20;;;;;;;;;;5031951;28;20189;-72
2022/10/30 10:24:46;;;;;;;11.45;7.03;;;;;;;;;;5031021;28;20174;-72
2022/10/30 10:27:14;;;;;;;12.18;7.40;;;;;;;;;;5029989;28;20180;-72
2022/10/30 10:29:39;;;;;;;13.48;7.97;;;;;;;;;;5020531;28;20210;-72
2022/10/30 10:32:17;;;;;;;12.87;7.20;;;;;;;;;;5028217;28;20235;-72
2022/10/30 10:35:00;;;;;;;18.85;9.63;;;;;;;;;;5029194;28;20240;-72
2022/10/30 10:37:46;;;;;;;18.65;8.93;;;;;;;;;;5022562;28;20543;-72
2022/10/30 10:40:23;;;;;;;13.32;7.90;;;;;;;;;;5026553;28;20217;-72
2022/10/30 10:42:58;;;;;;;14.00;7.60;;;;;;;;;;5022118;28;20186;-72
2022/10/30 10:45:45;;;;;;;12.82;7.43;;;;;;;;;;5030209;28;20269;-73
2022/10/30 10:48:29;;;;;;;12.73;7.32;;;;;;;;;;5027414;28;20224;-72
2022/10/30 10:51:01;;;;;;;17.58;7.47;;;;;;;;;;5026379;28;20218;-72
2022/10/30 10:53:29;;;;;;;13.65;7.85;;;;;;;;;;5026618;28;20186;-72
2022/10/30 10:55:57;;;;;;;20.92;8.27;;;;;;;;;;5027285;28;20205;-72
2022/10/30 10:58:28;;;;;;;18.17;8.95;;;;;;;;;;5022758;28;20186;-72
2022/10/30 11:00:55;;;;;;;12.55;7.38;;;;;;;;;;5026417;28;20202;-72
2022/10/30 11:03:24;;;;;;;12.05;7.35;;;;;;;;;;5028342;28;20178;-72
2022/10/30 11:05:56;;;;;;;11.52;7.25;;;;;;;;;;5023560;28;20207;-73
2022/10/30 11:08:26;;;;;;;15.50;7.80;;;;;;;;;;5039803;28;20693;-73
2022/10/30 11:10:58;;;;;;;12.30;7.28;;;;;;;;;;5021743;28;20191;-72
2022/10/30 11:13:26;;;;;;;14.05;7.50;;;;;;;;;;5031605;28;20231;-72
2022/10/30 11:15:58;;;;;;;11.55;7.43;;;;;;;;;;5024480;28;20183;-73
2022/10/30 11:18:23;;;;;;;12.02;6.80;;;;;;;;;;5027341;28;20190;-72
2022/10/30 11:20:58;;;;;;;14.20;7.33;;;;;;;;;;5026771;28;20218;-73
2022/10/30 11:23:34;;;;;;;10.45;6.50;;;;;;;;;;5030422;28;20423;-72
2022/10/30 11:26:00;;;;;;;13.13;6.32;;;;;;;;;;5043284;28;20182;-72
2022/10/30 11:28:33;;;;;;;11.52;6.15;;;;;;;;;;5025617;28;20186;-72
2022/10/30 11:31:17;;;;;;;10.85;7.25;;;;;;;;;;5019089;28;20561;-72
2022/10/30 11:33:42;;;;;;;14.52;8.00;;;;;;;;;;5018283;28;20198;-72
2022/10/30 11:36:09;;;;;;;14.25;6.65;;;;;;;;;;5026213;28;20296;-72
2022/10/30 11:38:34;;;;;;;12.35;6.10;;;;;;;;;;5025176;28;20289;-72
2022/10/30 11:41:00;;;;;;;10.60;6.30;;;;;;;;;;5028474;28;20201;-72
2022/10/30 11:43:25;;;;;;;10.90;5.80;;;;;;;;;;5018992;28;20186;-72
2022/10/30 11:45:51;;;;;;;12.00;6.60;;;;;;;;;;5023860;28;20181;-71
2022/10/30 11:48:36;;;;;;;12.45;6.57;;;;;;;;;;5030858;28;20714;-72
2022/10/30 11:51:03;;;;;;;10.70;6.68;;;;;;;;;;5020779;28;20548;-72
2022/10/30 11:53:38;;;;;;;14.38;7.90;;;;;;;;;;5029085;28;20178;-72
2022/10/30 11:56:10;;;;;;;11.07;6.88;;;;;;;;;;5027740;28;20189;-72
2022/10/30 11:58:37;;;;;;;14.00;6.78;;;;;;;;;;5031570;28;20573;-72
2022/10/30 12:01:09;;;;;;;14.18;8.60;;;;;;;;;;5028868;28;20203;-72
2022/10/30 12:03:37;;;;;;;14.20;6.93;;;;;;;;;;5032952;28;20178;-72
2022/10/30 12:06:22;;;;;;;10.77;7.13;;;;;;;;;;5025897;28;20170;-72
2022/10/30 12:08:57;;;;;;;17.90;7.43;;;;;;;;;;5023112;28;20253;-72
2022/10/30 12:11:26;;;;;;;11.40;6.35;;;;;;;;;;5030153;28;20184;-73
2022/10/30 12:13:53;;;;;;;12.05;6.47;;;;;;;;;;5030751;28;20194;-73
2022/10/30 12:16:18;;;;;;;14.45;6.68;;;;;;;;;;5029081;28;20682;-72
2022/10/30 12:19:03;;;;;;;8.98;5.93;;;;;;;;;;5028595;28;20201;-73
2022/10/30 12:21:39;;;;;;;17.02;7.45;;;;;;;;;;5031216;28;20210;-73
2022/10/30 12:24:08;;;;;;;12.80;6.53;;;;;;;;;;5030873;28;20182;-73
2022/10/30 12:26:34;;;;;;;11.43;7.10;;;;;;;;;;5030006;28;20181;-72
2022/10/30 12:29:01;;;;;;;11.52;6.72;;;;;;;;;;5028428;28;20877;-72
2022/10/30 12:31:33;;;;;;;15.82;7.47;;;;;;;;;;5027639;28;20233;-72
2022/10/30 12:34:24;;;;;;;16.50;7.03;;;;;;;;;;5035215;28;20186;-72
2022/10/30 12:36:52;;;;;;;12.48;6.90;;;;;;;;;;5024211;28;20186;-73
2022/10/30 12:39:22;;;;;;;13.10;7.03;;;;;;;;;;5026152;28;20209;-72
2022/10/30 12:41:59;;;;;;;9.48;6.00;;;;;;;;;;5023784;28;20193;-72
2022/10/30 12:44:42;;;;;;;13.02;6.28;;;;;;;;;;5038306;28;20243;-72
2022/10/30 12:47:30;;;;;;;11.57;7.03;;;;;;;;;;5043000;28;20197;-72
2022/10/30 12:50:00;;;;;;;9.38;6.75;;;;;;;;;;5031632;28;20703;-72
2022/10/30 12:52:46;;;;;;;17.40;7.38;;;;;;;;;;5030127;28;20178;-72
2022/10/30 12:55:17;;;;;;;11.73;6.72;;;;;;;;;;5030234;28;20261;-72
2022/10/30 12:57:46;;;;;;;11.93;6.40;;;;;;;;;;5026162;28;20187;-72
2022/10/30 13:00:13;;;;;;;12.45;6.70;;;;;;;;;;5024544;28;20230;-72
2022/10/30 13:02:57;;;;;;;12.68;6.60;;;;;;;;;;5021664;28;20557;-72
2022/10/30 13:05:34;;;;;;;11.88;6.13;;;;;;;;;;5032320;28;20244;-72
2022/10/30 13:08:04;;;;;;;10.00;6.32;;;;;;;;;;5023490;28;20178;-72
2022/10/30 13:10:44;;;;;;;13.48;6.65;;;;;;;;;;5026668;28;20214;-71
2022/10/30 13:13:18;;;;;;;11.85;7.32;;;;;;;;;;5028152;28;20272;-72
2022/10/30 13:15:46;;;;;;;15.10;7.50;;;;;;;;;;5030736;28;20212;-72
2022/10/30 13:18:13;;;;;;;10.60;6.05;;;;;;;;;;5037497;28;20667;-73
2022/10/30 13:20:39;;;;;;;13.48;6.38;;;;;;;;;;5028305;28;20195;-72
2022/10/30 13:23:14;;;;;;;12.23;6.45;;;;;;;;;;5029997;28;20540;-73
2022/10/30 13:25:46;;;;;;;12.18;6.55;;;;;;;;;;5025643;28;20177;-72
2022/10/30 13:28:30;;;;;;;10.82;6.55;;;;;;;;;;5030268;28;20185;-72
2022/10/30 13:31:06;;;;;;;16.50;6.82;;;;;;;;;;5030557;28;20186;-72
2022/10/30 13:33:34;;;;;;;14.45;6.97;;;;;;;;;;5027160;28;20194;-72
2022/10/30 13:35:59;;;;;;;12.95;7.57;;;;;;;;;;5019622;28;20171;-72
2022/10/30 13:38:27;;;;;;;10.83;6.33;;;;;;;;;;5023389;28;20183;-72
2022/10/30 13:41:13;;;;;;;10.90;7.00;;;;;;;;;;5028285;28;20213;-72
2022/10/30 13:43:41;;;;;;;12.90;6.75;;;;;;;;;;5018437;28;20195;-72
2022/10/30 13:46:25;;;;;;;11.13;6.45;;;;;;;;;;5044708;28;20198;-72
2022/10/30 13:48:53;;;;;;;11.15;6.13;;;;;;;;;;5028487;28;20206;-72
2022/10/30 13:51:33;;;;;;;11.32;6.80;;;;;;;;;;5020053;28;20565;-72
2022/10/30 13:54:17;;;;;;;11.93;6.95;;;;;;;;;;5044370;28;20182;-72
2022/10/30 13:56:44;;;;;;;13.13;7.20;;;;;;;;;;5028898;28;20170;-72
2022/10/30 13:59:09;;;;;;;16.02;7.05;;;;;;;;;;5017525;28;20194;-72
2022/10/30 14:01:38;;;;;;;13.40;8.33;;;;;;;;;;5026377;28;20529;-72
2022/10/30 14:04:08;;;;;;;18.08;7.22;;;;;;;;;;5022787;28;20411;-72
2022/10/30 14:06:34;;;;;;;13.45;7.32;;;;;;;;;;5031280;28;20554;-72
2022/10/30 14:09:08;;;;;;;11.90;7.47;;;;;;;;;;5022964;28;20191;-72
2022/10/30 14:11:33;;;;;;;13.52;7.68;;;;;;;;;;5028093;28;20450;-72
2022/10/30 14:14:24;;;;;;;15.20;8.33;;;;;;;;;;5029210;28;20254;-72
2022/10/30 14:17:08;;;;;;;12.20;7.20;;;;;;;;;;5036159;28;20420;-72
2022/10/30 14:19:53;;;;;;;14.45;7.85;;;;;;;;;;5031146;28;20619;-72
2022/10/30 14:22:23;;;;;;;13.93;7.95;;;;;;;;;;5029181;28;20174;-72
2022/10/30 14:24:48;;;;;;;14.65;7.65;;;;;;;;;;5025768;28;20175;-72
2022/10/30 14:27:18;;;;;;;18.73;8.23;;;;;;;;;;5030767;28;20178;-72
2022/10/30 14:29:48;;;;;;;15.32;7.60;;;;;;;;;;5024208;28;20946;-72
2022/10/30 14:32:13;;;;;;;17.10;7.68;;;;;;;;;;5028188;28;20671;-72